createdAt,value
2018-04-18T00:01:42.895Z,11.60
2018-04-18T00:04:10.517Z,11.50
2018-04-18T00:06:37.336Z,11.50
2018-04-18T00:09:04.515Z,11.50
2018-04-18T00:11:30.851Z,11.50
2018-04-18T00:13:58.515Z,11.40
2018-04-18T00:16:25.269Z,11.40
2018-04-18T00:18:52.071Z,11.40
2018-04-18T00:21:18.431Z,11.30
2018-04-18T00:23:45.305Z,11.30
2018-04-18T00:26:12.825Z,11.30
2018-04-18T00:28:40.316Z,11.30
2018-04-18T00:31:06.533Z,11.30
2018-04-18T00:33:32.756Z,11.20
2018-04-18T00:35:59.028Z,11.20
2018-04-18T00:38:26.412Z,11.20
2018-04-18T00:40:53.178Z,11.10
2018-04-18T00:43:20.496Z,11.00
2018-04-18T00:45:47.179Z,10.90
2018-04-18T00:48:14.730Z,10.90
2018-04-18T00:50:41.899Z,10.80
2018-04-18T00:53:09.165Z,10.90
2018-04-18T00:55:36.114Z,10.90
2018-04-18T00:58:03.115Z,10.90
2018-04-18T01:00:34.922Z,10.90
2018-04-18T01:03:02.434Z,10.90
2018-04-18T01:05:29.175Z,10.90
2018-04-18T01:07:55.467Z,10.90
2018-04-18T01:10:22.261Z,10.90
2018-04-18T01:12:48.826Z,11.00
2018-04-18T01:15:15.856Z,10.80
2018-04-18T01:17:43.607Z,10.70
2018-04-18T01:20:11.153Z,10.70
2018-04-18T01:22:37.370Z,10.70
2018-04-18T01:25:03.819Z,10.60
2018-04-18T01:27:31.065Z,10.60
2018-04-18T01:29:57.325Z,10.60
2018-04-18T01:32:24.269Z,10.50
2018-04-18T01:34:51.767Z,10.40
2018-04-18T01:37:18.762Z,10.40
2018-04-18T01:39:45.900Z,10.50
2018-04-18T01:42:12.709Z,10.50
2018-04-18T01:44:39.233Z,10.50
2018-04-18T01:47:05.750Z,10.50
2018-04-18T01:49:32.561Z,10.40
2018-04-18T01:51:58.838Z,10.40
2018-04-18T01:54:25.280Z,10.40
2018-04-18T01:56:52.239Z,10.30
2018-04-18T01:59:18.998Z,10.30
2018-04-18T02:01:45.258Z,10.30
2018-04-18T02:04:11.527Z,10.30
2018-04-18T02:06:37.718Z,10.30
2018-04-18T02:09:05.329Z,10.30
2018-04-18T02:11:32.872Z,10.30
2018-04-18T02:14:05.926Z,10.20
2018-04-18T02:16:32.637Z,10.30
2018-04-18T02:18:59.518Z,10.30
2018-04-18T02:21:25.755Z,10.30
2018-04-18T02:23:51.980Z,10.20
2018-04-18T02:26:19.220Z,10.20
2018-04-18T02:28:46.056Z,10.20
2018-04-18T02:31:13.096Z,10.20
2018-04-18T02:33:40.073Z,10.20
2018-04-18T02:36:06.311Z,10.20
2018-04-18T02:38:32.548Z,10.20
2018-04-18T02:40:58.766Z,10.20
2018-04-18T02:43:24.942Z,10.10
2018-04-18T02:45:51.887Z,10.10
2018-04-18T02:48:18.857Z,10.10
2018-04-18T02:50:45.866Z,10.10
2018-04-18T02:53:12.397Z,10.10
2018-04-18T02:55:39.224Z,10.00
2018-04-18T02:58:06.144Z,10.00
2018-04-18T03:00:32.883Z,10.00
2018-04-18T03:02:59.626Z,10.00
2018-04-18T03:05:32.779Z,9.90
2018-04-18T03:08:00.417Z,9.90
2018-04-18T03:10:27.628Z,9.90
2018-04-18T03:12:53.845Z,9.90
2018-04-18T03:15:20.024Z,9.80
2018-04-18T03:17:46.880Z,9.90
2018-04-18T03:20:13.859Z,9.90
2018-04-18T03:22:40.614Z,9.90
2018-04-18T03:25:07.280Z,9.90
2018-04-18T03:27:34.276Z,9.80
2018-04-18T03:30:00.495Z,9.70
2018-04-18T03:32:27.606Z,9.70
2018-04-18T03:34:54.653Z,9.70
2018-04-18T03:37:21.803Z,9.60
2018-04-18T03:39:48.468Z,9.70
2018-04-18T03:42:16.103Z,9.70
2018-04-18T03:44:42.286Z,9.70
2018-04-18T03:47:09.490Z,9.70
2018-04-18T03:49:35.672Z,9.60
2018-04-18T03:52:01.877Z,9.60
2018-04-18T03:54:28.960Z,9.60
2018-04-18T03:56:55.440Z,9.60
2018-04-18T03:59:23.429Z,9.60
2018-04-18T04:01:50.608Z,9.60
2018-04-18T04:04:17.385Z,9.60
2018-04-18T04:06:43.938Z,9.60
2018-04-18T04:09:11.442Z,9.70
2018-04-18T04:11:38.235Z,9.60
2018-04-18T04:14:06.726Z,9.60
2018-04-18T04:16:45.560Z,9.50
2018-04-18T04:19:25.010Z,9.60
2018-04-18T04:22:03.449Z,9.50
2018-04-18T04:24:36.636Z,9.50
2018-04-18T04:27:02.938Z,9.50
2018-04-18T04:29:29.153Z,9.50
2018-04-18T04:31:55.360Z,9.50
2018-04-18T04:34:23.988Z,9.60
2018-04-18T04:36:50.199Z,9.60
2018-04-18T04:39:16.622Z,9.60
2018-04-18T04:41:43.669Z,9.60
2018-04-18T04:44:10.920Z,9.50
2018-04-18T04:46:37.625Z,9.50
2018-04-18T04:49:04.110Z,9.50
2018-04-18T04:51:31.146Z,9.70
2018-04-18T04:53:57.440Z,9.70
2018-04-18T04:56:24.217Z,9.90
2018-04-18T04:58:50.485Z,10.00
2018-04-18T05:01:17.701Z,10.20
2018-04-18T05:03:45.721Z,10.50
2018-04-18T05:06:11.993Z,10.80
2018-04-18T05:08:38.221Z,11.00
2018-04-18T05:11:04.695Z,11.30
2018-04-18T05:13:31.637Z,11.40
2018-04-18T05:15:58.833Z,11.70
2018-04-18T05:18:26.411Z,12.30
2018-04-18T05:20:53.197Z,12.20
2018-04-18T05:23:19.815Z,12.60
2018-04-18T05:25:46.835Z,13.20
2018-04-18T05:28:13.692Z,13.20
2018-04-18T05:30:40.256Z,13.60
2018-04-18T05:33:07.210Z,13.40
2018-04-18T05:35:34.407Z,13.30
2018-04-18T05:38:00.653Z,13.20
2018-04-18T05:40:27.892Z,13.30
2018-04-18T05:42:54.482Z,13.40
2018-04-18T05:45:20.772Z,13.70
2018-04-18T05:47:47.103Z,13.80
2018-04-18T05:50:13.374Z,13.70
2018-04-18T05:52:40.119Z,13.70
2018-04-18T05:55:07.373Z,13.70
2018-04-18T05:57:35.449Z,13.70
2018-04-18T06:00:03.122Z,13.70
2018-04-18T06:02:30.662Z,14.00
2018-04-18T06:04:57.237Z,14.00
2018-04-18T06:07:24.498Z,14.30
2018-04-18T06:09:51.510Z,14.60
2018-04-18T06:12:18.453Z,14.80
2018-04-18T06:14:46.076Z,15.00
2018-04-18T06:17:12.903Z,15.00
2018-04-18T06:19:39.428Z,15.30
2018-04-18T06:22:06.437Z,15.60
2018-04-18T06:24:33.382Z,15.60
2018-04-18T06:27:00.741Z,15.80
2018-04-18T06:29:27.480Z,15.80
2018-04-18T06:31:55.345Z,16.00
2018-04-18T06:34:22.289Z,15.90
2018-04-18T06:36:50.257Z,15.90
2018-04-18T06:39:17.648Z,16.10
2018-04-18T06:41:44.673Z,16.30
2018-04-18T06:44:10.894Z,16.30
2018-04-18T06:46:38.202Z,16.40
2018-04-18T06:49:05.126Z,16.50
2018-04-18T06:51:31.362Z,16.50
2018-04-18T06:53:58.469Z,16.60
2018-04-18T06:56:25.062Z,17.00
2018-04-18T06:58:52.641Z,17.40
2018-04-18T07:01:19.093Z,17.30
2018-04-18T07:03:47.320Z,17.70
2018-04-18T07:06:15.499Z,17.80
2018-04-18T07:08:43.466Z,17.80
2018-04-18T07:11:10.687Z,17.80
2018-04-18T07:13:37.019Z,17.90
2018-04-18T07:16:03.249Z,17.80
2018-04-18T07:18:29.878Z,18.00
2018-04-18T07:20:56.942Z,18.20
2018-04-18T07:23:23.664Z,18.30
2018-04-18T07:25:50.383Z,18.30
2018-04-18T07:28:18.245Z,18.10
2018-04-18T07:30:45.849Z,18.20
2018-04-18T07:33:13.111Z,18.10
2018-04-18T07:35:40.331Z,17.90
2018-04-18T07:38:06.676Z,18.00
2018-04-18T07:40:33.847Z,18.20
2018-04-18T07:43:01.257Z,17.90
2018-04-18T07:45:27.840Z,18.00
2018-04-18T07:47:54.048Z,18.20
2018-04-18T07:50:20.912Z,18.30
2018-04-18T07:52:47.121Z,18.50
2018-04-18T07:55:13.922Z,18.50
2018-04-18T07:57:41.193Z,19.00
2018-04-18T08:00:07.966Z,18.90
2018-04-18T08:02:34.483Z,19.10
2018-04-18T08:05:00.825Z,19.40
2018-04-18T08:07:27.323Z,19.40
2018-04-18T08:09:54.367Z,19.30
2018-04-18T08:12:21.745Z,19.40
2018-04-18T08:14:48.603Z,19.40
2018-04-18T08:17:16.102Z,19.70
2018-04-18T08:19:43.262Z,20.00
2018-04-18T08:22:10.253Z,20.10
2018-04-18T08:24:37.702Z,20.10
2018-04-18T08:27:04.730Z,20.50
2018-04-18T08:29:31.177Z,20.40
2018-04-18T08:31:58.732Z,20.70
2018-04-18T08:34:25.045Z,20.70
2018-04-18T08:36:51.250Z,20.80
2018-04-18T08:39:18.773Z,20.50
2018-04-18T08:41:44.972Z,20.50
2018-04-18T08:44:12.273Z,20.60
2018-04-18T08:46:38.486Z,20.80
2018-04-18T08:49:04.705Z,20.80
2018-04-18T08:51:30.908Z,20.90
2018-04-18T08:53:57.354Z,21.00
2018-04-18T08:56:24.880Z,21.40
2018-04-18T08:58:51.841Z,21.60
2018-04-18T09:01:18.057Z,21.60
2018-04-18T09:03:44.480Z,21.90
2018-04-18T09:06:12.451Z,21.90
2018-04-18T09:08:39.763Z,21.80
2018-04-18T09:11:07.690Z,21.50
2018-04-18T09:13:34.167Z,21.50
2018-04-18T09:16:00.522Z,21.50
2018-04-18T09:18:27.502Z,21.80
2018-04-18T09:20:53.733Z,21.80
2018-04-18T09:23:20.311Z,22.00
2018-04-18T09:25:47.918Z,22.20
2018-04-18T09:28:14.153Z,22.20
2018-04-18T09:30:40.593Z,22.40
2018-04-18T09:33:09.447Z,22.60
2018-04-18T09:35:36.495Z,22.70
2018-04-18T09:38:03.469Z,22.70
2018-04-18T09:40:30.897Z,22.70
2018-04-18T09:42:58.370Z,22.70
2018-04-18T09:45:24.573Z,22.70
2018-04-18T09:47:52.478Z,22.50
2018-04-18T09:50:19.550Z,22.50
2018-04-18T09:52:47.813Z,23.00
2018-04-18T09:55:14.583Z,23.00
2018-04-18T09:57:41.798Z,23.20
2018-04-18T10:00:08.363Z,23.40
2018-04-18T10:02:37.227Z,23.40
2018-04-18T10:05:08.038Z,23.40
2018-04-18T10:07:34.262Z,23.40
2018-04-18T10:10:01.073Z,23.40
2018-04-18T10:12:28.257Z,23.40
2018-04-18T10:14:54.455Z,23.40
2018-04-18T10:17:20.681Z,23.40
2018-04-18T10:19:46.888Z,23.60
2018-04-18T10:22:14.054Z,23.10
2018-04-18T10:24:40.793Z,23.10
2018-04-18T10:27:07.538Z,23.20
2018-04-18T10:29:33.780Z,23.60
2018-04-18T10:32:00.722Z,24.10
2018-04-18T10:34:27.682Z,24.00
2018-04-18T10:36:55.581Z,24.20
2018-04-18T10:39:22.732Z,24.20
2018-04-18T10:41:51.137Z,24.40
2018-04-18T10:44:17.417Z,24.30
2018-04-18T10:46:44.253Z,24.40
2018-04-18T10:49:10.481Z,24.40
2018-04-18T10:51:37.265Z,24.40
2018-04-18T10:54:04.273Z,24.90
2018-04-18T10:56:32.252Z,24.90
2018-04-18T10:58:58.431Z,25.20
2018-04-18T11:01:24.892Z,25.30
2018-04-18T11:03:52.479Z,25.40
2018-04-18T11:06:18.691Z,25.30
2018-04-18T11:08:45.840Z,25.40
2018-04-18T11:11:12.554Z,25.30
2018-04-18T11:13:40.417Z,24.90
2018-04-18T11:16:08.292Z,24.70
2018-04-18T11:18:35.289Z,24.70
2018-04-18T11:21:01.478Z,24.70
2018-04-18T11:23:28.342Z,24.60
2018-04-18T11:25:55.110Z,24.40
2018-04-18T11:28:21.304Z,24.30
2018-04-18T11:30:48.569Z,24.20
2018-04-18T11:33:15.340Z,24.30
2018-04-18T11:35:41.914Z,24.50
2018-04-18T11:38:08.931Z,24.60
2018-04-18T11:40:36.142Z,24.90
2018-04-18T11:43:03.362Z,25.10
2018-04-18T11:45:30.450Z,25.30
2018-04-18T11:47:56.693Z,25.30
2018-04-18T11:50:22.903Z,25.20
2018-04-18T11:52:49.150Z,25.30
2018-04-18T11:55:15.926Z,25.20
2018-04-18T11:57:43.407Z,25.50
2018-04-18T12:00:09.885Z,25.50
2018-04-18T12:02:38.634Z,25.40
2018-04-18T12:05:04.958Z,25.40
2018-04-18T12:07:31.414Z,25.40
2018-04-18T12:09:58.130Z,25.10
2018-04-18T12:12:24.949Z,25.00
2018-04-18T12:14:51.621Z,25.10
2018-04-18T12:17:18.762Z,25.10
2018-04-18T12:19:44.954Z,25.10
2018-04-18T12:22:11.719Z,24.90
2018-04-18T12:24:39.214Z,24.70
2018-04-18T12:27:06.053Z,24.70
2018-04-18T12:29:32.544Z,24.50
2018-04-18T12:31:59.529Z,24.90
2018-04-18T12:34:25.738Z,24.90
2018-04-18T12:36:51.964Z,24.80
2018-04-18T12:39:18.211Z,24.60
2018-04-18T12:41:45.136Z,24.40
2018-04-18T12:44:11.596Z,24.30
2018-04-18T12:46:38.588Z,24.50
2018-04-18T12:49:04.923Z,24.50
2018-04-18T12:51:31.916Z,24.10
2018-04-18T12:53:58.253Z,24.10
2018-04-18T12:56:25.301Z,24.20
2018-04-18T12:58:51.585Z,24.10
2018-04-18T13:01:19.321Z,24.50
2018-04-18T13:03:46.892Z,24.40
2018-04-18T13:06:14.236Z,24.40
2018-04-18T13:08:40.451Z,24.40
2018-04-18T13:11:07.647Z,24.40
2018-04-18T13:13:35.163Z,24.40
2018-04-18T13:16:02.481Z,24.40
2018-04-18T13:18:29.723Z,24.50
2018-04-18T13:20:55.930Z,24.50
2018-04-18T13:23:24.085Z,24.30
2018-04-18T13:25:51.877Z,24.30
2018-04-18T13:28:18.529Z,24.30
2018-04-18T13:30:45.792Z,24.30
2018-04-18T13:33:13.320Z,24.40
2018-04-18T13:35:40.822Z,24.30
2018-04-18T13:38:07.291Z,24.30
2018-04-18T13:40:34.905Z,24.30
2018-04-18T13:43:01.535Z,24.30
2018-04-18T13:45:28.393Z,24.10
2018-04-18T13:47:55.146Z,24.10
2018-04-18T13:50:21.732Z,24.20
2018-04-18T13:52:48.917Z,23.90
2018-04-18T13:55:15.457Z,23.90
2018-04-18T13:57:43.633Z,24.40
2018-04-18T14:00:11.575Z,24.50
2018-04-18T14:02:38.370Z,24.50
2018-04-18T14:05:05.137Z,24.50
2018-04-18T14:07:31.825Z,24.20
2018-04-18T14:10:06.844Z,24.30
2018-04-18T14:12:33.912Z,24.30
2018-04-18T14:15:00.654Z,24.50
2018-04-18T14:17:26.914Z,24.60
2018-04-18T14:19:55.147Z,24.50
2018-04-18T14:22:21.581Z,24.50
2018-04-18T14:24:47.815Z,24.50
2018-04-18T14:27:14.666Z,24.60
2018-04-18T14:29:41.171Z,24.70
2018-04-18T14:32:09.057Z,24.80
2018-04-18T14:34:35.851Z,24.80
2018-04-18T14:37:02.366Z,24.80
2018-04-18T14:39:29.635Z,25.00
2018-04-18T14:41:58.260Z,24.90
2018-04-18T14:44:25.484Z,24.90
2018-04-18T14:46:51.668Z,25.00
2018-04-18T14:49:18.831Z,25.10
2018-04-18T14:51:45.867Z,25.20
2018-04-18T14:54:13.563Z,24.80
2018-04-18T14:56:40.600Z,24.80
2018-04-18T14:59:08.558Z,24.60
2018-04-18T15:01:35.554Z,24.60
2018-04-18T15:04:01.777Z,24.60
2018-04-18T15:06:27.992Z,24.50
2018-04-18T15:08:54.709Z,24.60
2018-04-18T15:11:22.252Z,24.70
2018-04-18T15:13:52.454Z,24.70
2018-04-18T15:16:18.666Z,24.60
2018-04-18T15:18:44.875Z,24.50
2018-04-18T15:21:11.408Z,24.60
2018-04-18T15:23:39.586Z,24.50
2018-04-18T15:26:07.145Z,24.50
2018-04-18T15:28:33.472Z,24.50
2018-04-18T15:31:00.929Z,24.30
2018-04-18T15:33:27.673Z,24.30
2018-04-18T15:35:54.426Z,24.20
2018-04-18T15:38:22.397Z,24.10
2018-04-18T15:40:49.180Z,24.10
2018-04-18T15:43:16.969Z,24.00
2018-04-18T15:45:43.434Z,24.10
2018-04-18T15:48:11.356Z,23.90
2018-04-18T15:50:38.573Z,23.90
2018-04-18T15:53:04.769Z,24.00
2018-04-18T15:55:31.965Z,24.00
2018-04-18T15:57:58.948Z,23.90
2018-04-18T16:00:26.134Z,23.90
2018-04-18T16:02:53.098Z,23.90
2018-04-18T16:05:20.006Z,23.80
2018-04-18T16:07:46.239Z,23.70
2018-04-18T16:10:13.199Z,23.70
2018-04-18T16:12:39.987Z,23.70
2018-04-18T16:15:06.548Z,23.60
2018-04-18T16:17:33.620Z,23.50
2018-04-18T16:19:59.862Z,23.50
2018-04-18T16:22:26.257Z,23.20
2018-04-18T16:24:52.930Z,23.10
2018-04-18T16:27:19.893Z,23.10
2018-04-18T16:29:46.856Z,23.00
2018-04-18T16:32:13.032Z,22.90
2018-04-18T16:34:39.228Z,22.90
2018-04-18T16:37:08.137Z,22.90
2018-04-18T16:39:34.824Z,22.90
2018-04-18T16:42:01.781Z,22.90
2018-04-18T16:44:28.738Z,22.90
2018-04-18T16:46:54.990Z,22.90
2018-04-18T16:49:21.919Z,22.80
2018-04-18T16:51:48.097Z,22.90
2018-04-18T16:54:14.742Z,22.90
2018-04-18T16:56:42.225Z,22.90
2018-04-18T16:59:09.321Z,22.80
2018-04-18T17:01:36.676Z,22.90
2018-04-18T17:04:03.686Z,22.80
2018-04-18T17:06:30.550Z,22.70
2018-04-18T17:08:56.808Z,22.70
2018-04-18T17:11:23.030Z,22.70
2018-04-18T17:13:49.827Z,22.70
2018-04-18T17:16:16.616Z,22.70
2018-04-18T17:18:42.814Z,22.60
2018-04-18T17:21:09.612Z,22.60
2018-04-18T17:23:36.475Z,22.50
2018-04-18T17:26:02.747Z,22.50
2018-04-18T17:28:29.103Z,22.40
2018-04-18T17:30:56.822Z,22.30
2018-04-18T17:33:23.262Z,22.30
2018-04-18T17:35:50.715Z,22.30
2018-04-18T17:38:17.739Z,22.30
2018-04-18T17:40:44.644Z,22.30
2018-04-18T17:43:11.613Z,22.20
2018-04-18T17:45:39.036Z,22.10
2018-04-18T17:48:05.905Z,22.10
2018-04-18T17:50:32.869Z,22.00
2018-04-18T17:53:00.236Z,22.00
2018-04-18T17:55:27.299Z,21.80
2018-04-18T17:57:53.569Z,21.80
2018-04-18T18:00:21.169Z,21.60
2018-04-18T18:02:47.902Z,21.60
2018-04-18T18:05:14.176Z,21.50
2018-04-18T18:07:40.714Z,21.30
2018-04-18T18:10:07.947Z,21.10
2018-04-18T18:12:35.031Z,20.90
2018-04-18T18:15:02.515Z,20.70
2018-04-18T18:17:28.845Z,20.70
2018-04-18T18:19:55.172Z,20.60
2018-04-18T18:22:21.415Z,20.60
2018-04-18T18:24:47.656Z,20.30
2018-04-18T18:27:14.355Z,20.30
2018-04-18T18:29:41.919Z,20.20
2018-04-18T18:32:09.440Z,20.10
2018-04-18T18:34:35.807Z,20.10
2018-04-18T18:37:02.097Z,20.00
2018-04-18T18:39:28.409Z,19.90
2018-04-18T18:41:55.984Z,19.80
2018-04-18T18:44:22.354Z,19.60
2018-04-18T18:46:51.043Z,19.40
2018-04-18T18:49:17.423Z,19.40
2018-04-18T18:51:43.638Z,19.30
2018-04-18T18:54:10.582Z,19.30
2018-04-18T18:56:37.335Z,19.10
2018-04-18T18:59:03.558Z,19.10
2018-04-18T19:01:29.847Z,18.90
2018-04-18T19:03:56.354Z,18.90
2018-04-18T19:06:22.757Z,18.70
2018-04-18T19:08:49.251Z,18.60
2018-04-18T19:11:15.602Z,18.60
2018-04-18T19:13:41.809Z,18.50
2018-04-18T19:16:08.148Z,18.40
2018-04-18T19:18:34.411Z,18.30
2018-04-18T19:21:00.739Z,18.20
2018-04-18T19:23:27.006Z,18.10
2018-04-18T19:25:54.818Z,17.90
2018-04-18T19:28:21.873Z,17.50
2018-04-18T19:30:48.112Z,17.50
2018-04-18T19:33:14.565Z,17.40
2018-04-18T19:35:40.885Z,17.40
2018-04-18T19:38:07.132Z,17.30
2018-04-18T19:40:34.077Z,17.00
2018-04-18T19:43:01.223Z,16.80
2018-04-18T19:45:28.254Z,16.70
2018-04-18T19:47:54.551Z,16.70
2018-04-18T19:50:20.777Z,16.60
2018-04-18T19:52:47.259Z,16.50
2018-04-18T19:55:14.776Z,16.40
2018-04-18T19:57:42.543Z,16.40
2018-04-18T20:00:09.113Z,16.30
2018-04-18T20:02:36.083Z,16.40
2018-04-18T20:05:03.724Z,16.30
2018-04-18T20:07:30.683Z,16.20
2018-04-18T20:09:56.937Z,16.20
2018-04-18T20:12:24.227Z,16.30
2018-04-18T20:14:51.236Z,16.30
2018-04-18T20:17:17.556Z,16.20
2018-04-18T20:19:43.763Z,16.30
2018-04-18T20:22:11.231Z,16.20
2018-04-18T20:24:37.437Z,16.20
2018-04-18T20:27:05.087Z,16.10
2018-04-18T20:29:31.290Z,16.10
2018-04-18T20:31:59.470Z,16.00
2018-04-18T20:34:25.729Z,16.00
2018-04-18T20:36:53.241Z,16.00
2018-04-18T20:39:20.000Z,16.00
2018-04-18T20:41:54.518Z,15.90
2018-04-18T20:44:21.288Z,15.90
2018-04-18T20:46:49.631Z,15.80
2018-04-18T20:49:16.658Z,15.70
2018-04-18T20:51:42.870Z,15.70
2018-04-18T20:54:09.103Z,15.70
2018-04-18T20:56:35.343Z,15.70
2018-04-18T20:59:01.542Z,15.50
2018-04-18T21:01:29.210Z,15.40
2018-04-18T21:03:55.974Z,15.20
2018-04-18T21:06:22.716Z,14.90
2018-04-18T21:08:50.432Z,14.90
2018-04-18T21:11:18.477Z,14.90
2018-04-18T21:13:44.701Z,14.90
2018-04-18T21:16:11.548Z,14.90
2018-04-18T21:18:37.772Z,14.90
2018-04-18T21:21:04.049Z,14.90
2018-04-18T21:23:31.115Z,14.80
2018-04-18T21:25:58.721Z,14.70
2018-04-18T21:28:25.899Z,14.70
2018-04-18T21:30:53.177Z,14.70
2018-04-18T21:33:20.408Z,14.70
2018-04-18T21:35:47.649Z,14.50
2018-04-18T21:38:15.322Z,14.50
2018-04-18T21:40:42.111Z,14.50
2018-04-18T21:43:15.426Z,14.50
2018-04-18T21:45:41.690Z,14.50
2018-04-18T21:48:08.435Z,14.40
2018-04-18T21:50:35.023Z,14.40
2018-04-18T21:53:02.773Z,14.30
2018-04-18T21:55:30.688Z,14.30
2018-04-18T21:57:58.055Z,14.30
2018-04-18T22:00:25.081Z,14.20
2018-04-18T22:02:52.029Z,14.30
2018-04-18T22:05:19.534Z,14.20
2018-04-18T22:07:46.212Z,14.20
2018-04-18T22:10:13.069Z,14.20
2018-04-18T22:12:40.536Z,14.00
2018-04-18T22:15:07.069Z,14.00
2018-04-18T22:17:34.105Z,13.80
2018-04-18T22:20:01.061Z,13.70
2018-04-18T22:22:27.929Z,13.70
2018-04-18T22:24:54.375Z,13.70
2018-04-18T22:27:21.949Z,13.60
2018-04-18T22:29:48.794Z,13.60
2018-04-18T22:32:15.648Z,13.60
2018-04-18T22:34:42.391Z,13.70
2018-04-18T22:37:09.108Z,13.60
2018-04-18T22:39:35.415Z,13.60
2018-04-18T22:42:02.169Z,13.50
2018-04-18T22:44:28.371Z,13.40
2018-04-18T22:46:55.888Z,13.40
2018-04-18T22:49:23.519Z,13.30
2018-04-18T22:51:51.109Z,13.20
2018-04-18T22:54:18.607Z,13.20
2018-04-18T22:56:45.552Z,13.10
2018-04-18T22:59:13.539Z,13.20
2018-04-18T23:01:40.333Z,13.10
2018-04-18T23:04:07.852Z,13.10
2018-04-18T23:06:34.573Z,13.10
2018-04-18T23:09:00.817Z,13.10
2018-04-18T23:11:27.552Z,13.00
2018-04-18T23:13:53.755Z,13.00
2018-04-18T23:16:21.211Z,12.90
2018-04-18T23:18:47.847Z,13.00
2018-04-18T23:21:14.886Z,12.80
2018-04-18T23:23:42.391Z,12.80
2018-04-18T23:26:09.636Z,12.70
2018-04-18T23:28:35.906Z,12.70
2018-04-18T23:31:02.877Z,12.60
2018-04-18T23:33:30.301Z,12.60
2018-04-18T23:35:57.233Z,12.50
2018-04-18T23:38:24.422Z,12.50
2018-04-18T23:40:51.562Z,12.50
2018-04-18T23:43:17.793Z,12.50
2018-04-18T23:45:44.009Z,12.60
2018-04-18T23:48:10.975Z,12.40
2018-04-18T23:50:37.208Z,12.40
2018-04-18T23:53:03.696Z,12.40
2018-04-18T23:55:30.521Z,12.40
2018-04-18T23:57:57.536Z,12.30
